Glen Park, New York
Current Conditions -  °F | °C
As of 11:56 AM on Thursday 27 Nov 2014 (Local Time) from KART Reporting Station
Overcast Overcast  
Wind Chill: -1°   Ceiling: 3300
Heat Index: -1°   Visibility: 10mi
Dew Point: -7°   Wind: 3mph
Humidity: 64%   Direction: 20°NNE
Pressure: 30.04"   Gusts: NA
Location:  43.9663°N, 75.9119°W
Report Text: KART 271656Z AUTO 02003KT 10SM OVC033 M01/M07 A3004 RMK AO2 SLP178 T10061067
Loading
Personal Weather Stations






























Interactive Weather Map New forecast layout! Learn more

10-Day Weather Forecast

Advertisements
Track Severe Weather on mobile